x

Nantucket Sound (44020) Wave Buoy

6:50 - Tue 28th Jun 2016 All times are EDT. -4 hours from GMT.

  • Sig Wave height 1.6ft
  • Swell Direction
  • Peak Period 3s
  • Average Period 3s
  • Wind
    16mph, 20mph gusts
  • Sea Temp 68°f
  • Ar Temp 68°f
  • Sea Pressure 1016.3mb
  • Nantucket Sound
  • Nantucket Sound

More Historic Weather Station data

Upgrade to MSW Pro to gain access to the past 30 days of data for over 8000 Wavebouys and Weather Stations around the globe.

Join Pro

Comparision Forecast

View Surf forecast
   
Ter 06/28 6:50 1.6ft 3s 3s 16 20 mph 1016.3mb 68f 68f
5:50 1.6ft 3s 3s 16 18 mph 1016.3mb 68f 68f
4:50 1.6ft 3s 3s 16 18 mph 1016.4mb 68f 68f
3:50 1.3ft 3s 3s 16 18 mph 1016.4mb 68f 69f
2:50 1.6ft 3s 3s 16 20 mph 1016.9mb 68f 69f
1:50 1.6ft 3s 3s 18 20 mph 1017.2mb 68f 69f
12:50 1.6ft 3s 3s 20 22 mph 1017.4mb 67f 69f
Seg 06/27 11:50 1.3ft 3s 3s 16 20 mph 1017.9mb 67f 68f
10:50 1.3ft 3s 3s 16 18 mph 1018.2mb 67f 68f
9:50 1.3ft 3s 3s 16 18 mph 1018.2mb 67f 68f
8:50 1.3ft 3s 3s 16 18 mph 1018mb 68f 68f
7:50 1.3ft 3s 3s 16 18 mph 1017.9mb 68f 68f
6:50 2ft 3s 3s 16 20 mph 1017.9mb 68f 69f
5:50 1.6ft 3s 3s 18 20 mph 1017.9mb 68f 68f
4:50 1.6ft 3s 3s 18 20 mph 1018.3mb 68f 67f
3:50 1.6ft 3s 3s 20 22 mph 1018.2mb 68f 67f
2:50 1.3ft 3s 3s 18 20 mph 1018.9mb 68f 67f
1:50 1ft 3s 3s 18 20 mph 1019.3mb 68f 66f
12:50 1.3ft 3s 3s 16 18 mph 1019.6mb 68f 67f
11:50 1.3ft 3s 3s 16 18 mph 1020mb 67f 66f
10:50 1.3ft 3s 3s 16 18 mph 1019.9mb 66f 67f
9:50 1.3ft 3s 3s 16 18 mph 1020.3mb 66f 66f
8:50 1.3ft 3s 3s 13 16 mph 1020.5mb 66f 66f
7:50 1.3ft 3s 3s 13 16 mph 1020.7mb 67f 66f
6:50 1.3ft 7s 3s 13 16 mph 1020.8mb 67f 65f
5:50 1.6ft 8s 4s 16 18 mph 1020.7mb 67f 65f
4:50 1.3ft 3s 3s 13 16 mph 1021mb 67f 64f
3:50 1.3ft 3s 3s 18 20 mph 1020.6mb 67f 64f
2:50 1.3ft 3s 3s 18 20 mph 1020.4mb 67f 65f
1:50 1ft 3s 3s 18
mph
1020.3mb 67f 66f
12:50 1ft 3s 3s 16 18 mph 1020.3mb 67f 65f
Dom 06/26 11:50 1ft 2s 3s 13 16 mph 1020.7mb 66f 65f
10:50 1ft 8s 3s 13
mph
1020.7mb 66f 65f
9:50 1ft 10s 4s 11
mph
1021mb 66f 65f
8:50 1ft 5s 4s 11 13 mph 1021.4mb 67f 64f
7:50 1ft 2s 3s 11 13 mph 1021.6mb 67f 65f
6:50 1.3ft 6s 4s 11 13 mph 1021.9mb 68f 65f
5:50 1.3ft 3s 3s 11 13 mph 1022.1mb 68f 65f
4:50 1ft 7s 4s 11 13 mph 1022.6mb 68f 65f
3:50 0.7ft  -  4s 11 13 mph 1023mb 68f 66f
2:50 0.7ft  -  4s 11
mph
1023.5mb 68f 66f
1:50 0.7ft  -  4s 7
mph
1023.5mb 68f 66f
12:50 0.7ft  -  4s 4
mph
1023.8mb 69f 67f
11:50 0.7ft  -  4s 4 7 mph 1023.7mb 68f 66f
10:50 0.7ft  -  4s 4 7 mph 1023.9mb 66f 65f
9:50 0.7ft  -  4s 9 11 mph 1023.8mb 65f 64f
8:50 0.7ft  -  4s 7
mph
1024.3mb 65f 63f
7:50 0.7ft  -  3s 7 9 mph 1023.5mb 66f 64f
6:50 0.7ft  -  4s 7 9 mph 1023.6mb 66f 65f
5:50 1ft 8s 4s 9
mph
1023.8mb 67f 64f
3:50 1ft 7s 5s 4 7 mph 1023.3mb 67f 65f
2:50 0.7ft  -  5s 2
mph
1022.5mb 67f 64f
1:50 0.7ft  -  4s  -  2 mph 1022.4mb 67f 63f
12:50 0.7ft  -  4s 2 4 mph 1022.6mb 67f 63f
Sáb 06/25 11:50 0.7ft  -  4s 7
mph
1022.6mb 66f 62f
10:50 0.7ft  -  4s 4 7 mph 1023.3mb 66f 62f
9:50 0.7ft  -  4s 4
mph
1023.4mb 65f 62f
8:50 0.7ft  -  4s 2 4 mph 1023mb 66f 62f
7:50 1ft 4s 4s 7 9 mph 1022.6mb 66f 62f
6:50 0.7ft  -  4s 9 11 mph 1022.3mb 67f 62f
5:50 1ft 4s 3s 11 13 mph 1022.5mb 68f 62f
4:50 1ft 8s 3s 13 16 mph 1022.1mb 68f 63f
3:50 1.3ft 2s 3s 13 16 mph 1022.1mb 68f 63f
2:50 1.3ft 3s 3s 13 16 mph 1022.6mb 68f 64f
1:50 1ft 3s 3s 13 16 mph 1022.6mb 68f 63f
12:50 0.7ft  -  3s 11 13 mph 1022.8mb 67f 63f
11:50 0.7ft  -  3s 11 13 mph 1022.8mb 67f 63f
10:50 1ft 5s 3s 11
mph
1022.9mb 67f 62f
9:50 0.7ft  -  3s 9 11 mph 1022.7mb 65f 62f
8:50 0.7ft  -  4s 9 11 mph 1022.7mb 65f 62f
7:50 0.7ft  -  4s 9 11 mph 1022.2mb 65f 62f
6:50 0.7ft  -  4s 11
mph
1021.8mb 65f 62f
5:50 0.7ft  -  3s 11 13 mph 1021.1mb 66f 61f
4:50 1ft 8s 3s 11 13 mph 1020.9mb 67f 61f
3:50 1ft 7s 3s 9
mph
1020.6mb 67f 64f
2:50 1ft 8s 3s 9 11 mph 1020.4mb 67f 65f
1:50 1ft 3s 3s 11
mph
1020.4mb 67f 64f
12:50 1ft 3s 3s 11 13 mph 1020.3mb 67f 65f
Sex 06/24 11:50 1ft 3s 3s 13 16 mph 1020.1mb 67f 65f
10:50 1ft 3s 3s 13 16 mph 1020.3mb 66f 64f
9:50 1ft 5s 3s 13 16 mph 1020.2mb 66f 64f
8:50 0.7ft  -  4s 11 16 mph 1019.8mb 66f 64f
7:50 0.7ft  -  4s 11
mph
1019.8mb 66f 63f
6:50 0.7ft  -  4s 11
mph
1019.8mb 67f 64f
5:50 1ft 6s 4s 11 13 mph 1019.6mb 67f 64f
4:50 1ft 5s 4s 11
mph
1019.6mb 68f 64f
3:50 1.3ft 3s 3s 13
mph
1019.1mb 68f 64f
2:50 1.3ft 3s 3s 11
mph
1019.2mb 68f 64f
1:50 1.3ft 3s 3s 11 13 mph 1019mb 67f 65f
12:50 1.3ft 3s 3s 13 16 mph 1018.6mb 67f 66f
11:50 1.3ft 3s 3s 16 18 mph 1018mb 67f 67f